^^
Grace C. Lehan Memorial Weather Station Historical Data
Daily Summary for January 12, 2022 Units:  Both    English   Metric
Daily Weekly Monthly Yearly
  High: Low: Average:
Temperature: 40.1 °F /  4.5 °C 8.8 °F /  -12.9 °C 26.4 °F /  -3.1 °C
Dew Point: 26.1 °F /  -3.3 °C 2.4 °F /  -16.4 °C 16.1 °F /  -8.8 °C
Humidity: 83% 50.5% 66%
Wind Speed: 8mph /  12.9km/h - 1.2mph /  1.9km/h
Wind Gust: 18mph /  29km/h - -
Wind- - WSW
Pressure: 30.44 in /  1030.7 hPa 30.02 in /  1016.5 hPa -
Precipitation: 0.02 in /  0.51 mm    
 
 
Tabular Data for January 12, 2022
Time Temperature Dew Point Pressure Wind Wind Speed Wind Gust Humidity Rainfall Rate (Hourly) solar
00:04 8.9 °F /  -12.8 °C 2.6 °F /  -16.3 °C 30.44in /  1030.7hPa WNW 0.1mph /  0.2km/h 2mph /  3.2km/h 75% 0.00in /  0mm 0 W/m2
00:09 8.8 °F /  -12.9 °C 2.7 °F /  -16.3 °C 30.43in /  1030.4hPa Calm   1mph /  1.6km/h 75.8% 0.00in /  0mm 0 W/m2
00:14 8.8 °F /  -12.9 °C 2.8 °F /  -16.2 °C 30.42in /  1030hPa Calm   1mph /  1.6km/h 76% 0.00in /  0mm 0 W/m2
00:19 8.8 °F /  -12.9 °C 2.7 °F /  -16.3 °C 30.42in /  1030hPa WNW 0.4mph /  0.6km/h 2mph /  3.2km/h 75.5% 0.00in /  0mm 0 W/m2
00:24 9 °F /  -12.8 °C 2.7 °F /  -16.3 °C 30.42in /  1030hPa WNW 0.3mph /  0.5km/h 2mph /  3.2km/h 75% 0.00in /  0mm 0 W/m2
00:29 9.1 °F /  -12.7 °C 2.8 °F /  -16.2 °C 30.43in /  1030.4hPa WNW 0.4mph /  0.6km/h 3mph /  4.8km/h 75% 0.00in /  0mm 0 W/m2
00:34 9.1 °F /  -12.7 °C 2.8 °F /  -16.2 °C 30.43in /  1030.4hPa Calm   3mph /  4.8km/h 75% 0.00in /  0mm 0 W/m2
00:39 9.1 °F /  -12.7 °C 2.8 °F /  -16.2 °C 30.43in /  1030.4hPa Calm   1mph /  1.6km/h 75% 0.00in /  0mm 0 W/m2
00:44 9.2 °F /  -12.7 °C 2.9 °F /  -16.2 °C 30.42in /  1030hPa WNW 0.5mph /  0.8km/h 3mph /  4.8km/h 75% 0.00in /  0mm 0 W/m2
00:49 9.2 °F /  -12.7 °C 2.9 °F /  -16.2 °C 30.42in /  1030hPa WNW 0.3mph /  0.5km/h 3mph /  4.8km/h 75% 0.00in /  0mm 0 W/m2
00:54 9.2 °F /  -12.7 °C 2.9 °F /  -16.2 °C 30.42in /  1030hPa WNW 0.1mph /  0.2km/h 3mph /  4.8km/h 75% 0.00in /  0mm 0 W/m2
00:59 9.3 °F /  -12.6 °C 3 °F /  -16.1 °C 30.42in /  1030hPa Calm   3mph /  4.8km/h 75% 0.00in /  0mm 0 W/m2
01:04 9.3 °F /  -12.6 °C 2.7 °F /  -16.3 °C 30.42in /  1030hPa WNW 0.4mph /  0.6km/h 3mph /  4.8km/h 74% 0.00in /  0mm 0 W/m2
01:09 9.4 °F /  -12.6 °C 2.7 °F /  -16.3 °C 30.42in /  1030hPa Calm   2mph /  3.2km/h 73.7% 0.00in /  0mm 0 W/m2
01:14 9.4 °F /  -12.6 °C 2.5 °F /  -16.4 °C 30.41in /  1029.7hPa Calm   2mph /  3.2km/h 73% 0.00in /  0mm 0 W/m2
01:19 9.4 °F /  -12.6 °C 2.5 °F /  -16.4 °C 30.41in /  1029.7hPa WNW 0.4mph /  0.6km/h 2mph /  3.2km/h 73% 0.00in /  0mm 0 W/m2
01:24 9.3 °F /  -12.6 °C 2.4 °F /  -16.4 °C 30.41in /  1029.7hPa WNW 0.1mph /  0.2km/h 2mph /  3.2km/h 73% 0.00in /  0mm 0 W/m2
01:29 9.3 °F /  -12.6 °C 2.4 °F /  -16.4 °C 30.41in /  1029.7hPa WNW 0.6mph /  1km/h 2mph /  3.2km/h 73% 0.00in /  0mm 0 W/m2
01:34 9.3 °F /  -12.6 °C 2.5 °F /  -16.4 °C 30.41in /  1029.7hPa WNW 0.3mph /  0.5km/h 2mph /  3.2km/h 73.3% 0.00in /  0mm 0 W/m2
01:39 9.3 °F /  -12.6 °C 2.7 °F /  -16.3 °C 30.41in /  1029.7hPa WNW 0.2mph /  0.3km/h 2mph /  3.2km/h 73.8% 0.00in /  0mm 0 W/m2
01:44 9.4 °F /  -12.6 °C 2.8 °F /  -16.2 °C 30.42in /  1030hPa Calm   2mph /  3.2km/h 74% 0.00in /  0mm 0 W/m2
01:49 9.4 °F /  -12.6 °C 2.8 °F /  -16.2 °C 30.42in /  1030hPa WNW 0.5mph /  0.8km/h 3mph /  4.8km/h 74% 0.00in /  0mm 0 W/m2
01:54 9.5 °F /  -12.5 °C 2.9 °F /  -16.2 °C 30.41in /  1029.7hPa WNW 0.1mph /  0.2km/h 3mph /  4.8km/h 74% 0.00in /  0mm 0 W/m2
01:59 9.5 °F /  -12.5 °C 2.9 °F /  -16.2 °C 30.41in /  1029.7hPa Calm   3mph /  4.8km/h 74% 0.00in /  0mm 0 W/m2
02:04 9.5 °F /  -12.5 °C 2.9 °F /  -16.2 °C 30.40in /  1029.3hPa WNW 0.2mph /  0.3km/h 3mph /  4.8km/h 74% 0.00in /  0mm 0 W/m2
02:09 9.5 °F /  -12.5 °C 3 °F /  -16.1 °C 30.40in /  1029.3hPa Calm   2mph /  3.2km/h 74.3% 0.00in /  0mm 0 W/m2
02:14 9.5 °F /  -12.5 °C 3.2 °F /  -16 °C 30.40in /  1029.3hPa Calm   2mph /  3.2km/h 75% 0.00in /  0mm 0 W/m2
02:19 9.5 °F /  -12.5 °C 3 °F /  -16.1 °C 30.40in /  1029.3hPa Calm   2mph /  3.2km/h 74.2% 0.00in /  0mm 0 W/m2
02:24 9.5 °F /  -12.5 °C 2.8 °F /  -16.2 °C 30.39in /  1029hPa Calm   2mph /  3.2km/h 73.8% 0.00in /  0mm 0 W/m2
02:29 9.6 °F /  -12.4 °C 2.8 °F /  -16.2 °C 30.39in /  1029hPa Calm   2mph /  3.2km/h 73.3% 0.00in /  0mm 0 W/m2
02:34 9.7 °F /  -12.4 °C 2.8 °F /  -16.2 °C 30.38in /  1028.7hPa Calm   2mph /  3.2km/h 73% 0.00in /  0mm 0 W/m2
02:39 9.9 °F /  -12.3 °C 3.1 °F /  -16.1 °C 30.38in /  1028.7hPa WNW 0.1mph /  0.2km/h 1mph /  1.6km/h 73.5% 0.00in /  0mm 0 W/m2
02:44 10 °F /  -12.2 °C 3.4 °F /  -15.9 °C 30.38in /  1028.7hPa Calm   1mph /  1.6km/h 74% 0.00in /  0mm 0 W/m2
02:49 10.2 °F /  -12.1 °C 3.5 °F /  -15.8 °C 30.38in /  1028.7hPa WNW 0.1mph /  0.2km/h 1mph /  1.6km/h 74% 0.00in /  0mm 0 W/m2
02:54 10.3 °F /  -12.1 °C 3.6 °F /  -15.8 °C 30.38in /  1028.7hPa WNW 0.4mph /  0.6km/h 2mph /  3.2km/h 73.7% 0.00in /  0mm 0 W/m2
02:59 10.3 °F /  -12.1 °C 3.4 °F /  -15.9 °C 30.36in /  1028hPa Calm   2mph /  3.2km/h 73% 0.00in /  0mm 0 W/m2
03:04 10.3 °F /  -12.1 °C 3.4 °F /  -15.9 °C 30.36in /  1028hPa Calm   2mph /  3.2km/h 73% 0.00in /  0mm 0 W/m2
03:09 10.4 °F /  -12 °C 3.4 °F /  -15.9 °C 30.36in /  1028hPa WNW 0.1mph /  0.2km/h 1mph /  1.6km/h 72.8% 0.00in /  0mm 0 W/m2
03:14 10.4 °F /  -12 °C 3.2 °F /  -16 °C 30.36in /  1028hPa WNW 0.3mph /  0.5km/h 2mph /  3.2km/h 72% 0.00in /  0mm 0 W/m2
03:19 10.4 °F /  -12 °C 3.5 °F /  -15.8 °C 30.36in /  1028hPa Calm   2mph /  3.2km/h 73% 0.00in /  0mm 0 W/m2
03:24 10.4 °F /  -12 °C 3.5 °F /  -15.8 °C 30.35in /  1027.7hPa Calm   2mph /  3.2km/h 73% 0.00in /  0mm 0 W/m2
03:29 10.4 °F /  -12 °C 3.8 °F /  -15.7 °C 30.35in /  1027.7hPa WNW 0.1mph /  0.2km/h 2mph /  3.2km/h 74% 0.00in /  0mm 0 W/m2
03:34 10.4 °F /  -12 °C 3.8 °F /  -15.7 °C 30.34in /  1027.3hPa Calm   2mph /  3.2km/h 74% 0.00in /  0mm 0 W/m2
03:39 10.4 °F /  -12 °C 3.8 °F /  -15.7 °C 30.34in /  1027.3hPa Calm     74% 0.00in /  0mm 0 W/m2
03:44 10.4 °F /  -12 °C 3.8 °F /  -15.7 °C 30.34in /  1027.3hPa Calm     74% 0.00in /  0mm 0 W/m2
03:49 10.4 °F /  -12 °C 3.8 °F /  -15.7 °C 30.35in /  1027.7hPa Calm     74% 0.00in /  0mm 0 W/m2
03:54 10.4 °F /  -12 °C 3.8 °F /  -15.7 °C 30.34in /  1027.3hPa Calm     74% 0.00in /  0mm 0 W/m2
03:59 10.3 °F /  -12.1 °C 3.7 °F /  -15.7 °C 30.34in /  1027.3hPa Calm     74% 0.00in /  0mm 0 W/m2
04:04 10.3 °F /  -12.1 °C 3.6 °F /  -15.8 °C 30.34in /  1027.3hPa Calm     74% 0.00in /  0mm 0 W/m2
04:09 10.2 °F /  -12.1 °C 3.6 °F /  -15.8 °C 30.34in /  1027.3hPa Calm     74% 0.00in /  0mm 0 W/m2
04:14 10.1 °F /  -12.2 °C 3.5 °F /  -15.8 °C 30.33in /  1027hPa Calm     74% 0.00in /  0mm 0 W/m2
04:19 10.1 °F /  -12.2 °C 3.5 °F /  -15.8 °C 30.32in /  1026.6hPa Calm     74% 0.00in /  0mm 0 W/m2
04:24 10.1 °F /  -12.2 °C 3.5 °F /  -15.8 °C 30.32in /  1026.6hPa Calm     74% 0.00in /  0mm 0 W/m2
04:29 10.1 °F /  -12.2 °C 3.5 °F /  -15.8 °C 30.31in /  1026.3hPa Calm     74% 0.00in /  0mm 0 W/m2
04:34 10.2 °F /  -12.1 °C 3.8 °F /  -15.7 °C 30.31in /  1026.3hPa Calm   1mph /  1.6km/h 74.8% 0.00in /  0mm 0 W/m2
04:39 10.3 °F /  -12.1 °C 4 °F /  -15.6 °C 30.30in /  1026hPa Calm   1mph /  1.6km/h 75% 0.00in /  0mm 0 W/m2
04:44 10.4 °F /  -12 °C 4.1 °F /  -15.5 °C 30.30in /  1026hPa Calm   1mph /  1.6km/h 75% 0.00in /  0mm 0 W/m2
04:49 10.6 °F /  -11.9 °C 4.3 °F /  -15.4 °C 30.30in /  1026hPa Calm   1mph /  1.6km/h 75% 0.00in /  0mm 0 W/m2
04:54 10.7 °F /  -11.8 °C 4.4 °F /  -15.3 °C 30.29in /  1025.6hPa Calm   1mph /  1.6km/h 75% 0.00in /  0mm 0 W/m2
04:59 10.8 °F /  -11.8 °C 4.4 °F /  -15.3 °C 30.29in /  1025.6hPa Calm   1mph /  1.6km/h 75% 0.00in /  0mm 0 W/m2
05:04 10.7 °F /  -11.8 °C 4.4 °F /  -15.3 °C 30.29in /  1025.6hPa Calm   1mph /  1.6km/h 75% 0.00in /  0mm 0 W/m2
05:09 10.7 °F /  -11.8 °C 4.4 °F /  -15.3 °C 30.29in /  1025.6hPa Calm     75.1% 0.00in /  0mm 0 W/m2
05:14 10.7 °F /  -11.8 °C 4.6 °F /  -15.2 °C 30.28in /  1025.3hPa Calm     76% 0.00in /  0mm 0 W/m2
05:19 10.7 °F /  -11.8 °C 4.7 °F /  -15.2 °C 30.27in /  1024.9hPa Calm     76% 0.00in /  0mm 0 W/m2
05:24 10.8 °F /  -11.8 °C 4.7 °F /  -15.2 °C 30.27in /  1024.9hPa Calm   1mph /  1.6km/h 76% 0.00in /  0mm 0 W/m2
05:29 10.9 °F /  -11.7 °C 4.8 °F /  -15.1 °C 30.27in /  1024.9hPa WNW 0.9mph /  1.4km/h 2mph /  3.2km/h 76% 0.00in /  0mm 0 W/m2
05:34 10.9 °F /  -11.7 °C 4.8 °F /  -15.1 °C 30.26in /  1024.6hPa WNW 0.7mph /  1.1km/h 2mph /  3.2km/h 76% 0.00in /  0mm 0 W/m2
05:39 10.9 °F /  -11.7 °C 4.9 °F /  -15.1 °C 30.26in /  1024.6hPa Calm   2mph /  3.2km/h 76.3% 0.00in /  0mm 0 W/m2
05:44 11 °F /  -11.7 °C 5.2 °F /  -14.9 °C 30.26in /  1024.6hPa Calm   2mph /  3.2km/h 77% 0.00in /  0mm 0 W/m2
05:49 11 °F /  -11.7 °C 5.2 °F /  -14.9 °C 30.26in /  1024.6hPa Calm   2mph /  3.2km/h 77% 0.00in /  0mm 0 W/m2
05:54 11 °F /  -11.7 °C 5.4 °F /  -14.8 °C 30.26in /  1024.6hPa Calm   2mph /  3.2km/h 77.8% 0.00in /  0mm 0 W/m2
05:59 11 °F /  -11.7 °C 5.5 °F /  -14.7 °C 30.26in /  1024.6hPa Calm   2mph /  3.2km/h 78% 0.00in /  0mm 0 W/m2
06:04 11.1 °F /  -11.6 °C 5.5 °F /  -14.7 °C 30.26in /  1024.6hPa Calm   2mph /  3.2km/h 77.8% 0.00in /  0mm 0 W/m2
06:09 11.2 °F /  -11.6 °C 5.7 °F /  -14.6 °C 30.26in /  1024.6hPa Calm     78% 0.00in /  0mm 0 W/m2
06:14 11.3 °F /  -11.5 °C 5.8 °F /  -14.6 °C 30.26in /  1024.6hPa Calm     78.1% 0.00in /  0mm 0 W/m2
06:19 11.3 °F /  -11.5 °C 6.1 °F /  -14.4 °C 30.26in /  1024.6hPa Calm     79% 0.00in /  0mm 0 W/m2
06:24 11.4 °F /  -11.4 °C 6.2 °F /  -14.3 °C 30.25in /  1024.3hPa Calm     79% 0.00in /  0mm 0 W/m2
06:28 11.6 °F /  -11.3 °C 6.4 °F /  -14.2 °C 30.25in /  1024.3hPa Calm     79% 0.00in /  0mm 0 W/m2
06:34 11.9 °F /  -11.2 °C 7 °F /  -13.9 °C 30.25in /  1024.3hPa Calm     80% 0.00in /  0mm 0 W/m2
06:39 12.2 °F /  -11 °C 7.2 °F /  -13.8 °C 30.25in /  1024.3hPa Calm     80% 0.00in /  0mm 0 W/m2
06:44 12.4 °F /  -10.9 °C 7.4 °F /  -13.7 °C 30.25in /  1024.3hPa Calm     80% 0.00in /  0mm 0 W/m2
06:49 12.5 °F /  -10.8 °C 7.5 °F /  -13.6 °C 30.25in /  1024.3hPa Calm     80% 0.00in /  0mm 0 W/m2
06:54 12.5 °F /  -10.8 °C 7.5 °F /  -13.6 °C 30.24in /  1023.9hPa Calm     80% 0.00in /  0mm 0 W/m2
06:59 12.5 °F /  -10.8 °C 7.5 °F /  -13.6 °C 30.24in /  1023.9hPa Calm     80% 0.00in /  0mm 0 W/m2
07:04 12.6 °F /  -10.8 °C 7.6 °F /  -13.6 °C 30.24in /  1023.9hPa Calm     80% 0.00in /  0mm 0 W/m2
07:09 12.7 °F /  -10.7 °C 7.7 °F /  -13.5 °C 30.23in /  1023.6hPa Calm     80% 0.00in /  0mm 0 W/m2
07:14 12.8 °F /  -10.7 °C 8 °F /  -13.3 °C 30.23in /  1023.6hPa Calm     80.5% 0.00in /  0mm 0 W/m2
07:19 13 °F /  -10.6 °C 8.3 °F /  -13.2 °C 30.23in /  1023.6hPa Calm     81% 0.00in /  0mm 5 W/m2
07:24 13.3 °F /  -10.4 °C 8.5 °F /  -13.1 °C 30.22in /  1023.2hPa Calm     81% 0.00in /  0mm 9 W/m2
07:29 13.5 °F /  -10.3 °C 8.8 °F /  -12.9 °C 30.22in /  1023.2hPa Calm     81% 0.00in /  0mm 16 W/m2
07:34 13.6 °F /  -10.2 °C 8.9 °F /  -12.8 °C 30.22in /  1023.2hPa Calm     81% 0.00in /  0mm 21 W/m2
07:39 13.7 °F /  -10.2 °C 9 °F /  -12.8 °C 30.22in /  1023.2hPa Calm     81% 0.00in /  0mm 28 W/m2
07:44 13.9 °F /  -10.1 °C 9.3 °F /  -12.6 °C 30.22in /  1023.2hPa WNW 0.1mph /  0.2km/h 2mph /  3.2km/h 81.3% 0.00in /  0mm 37 W/m2
07:49 14.5 °F /  -9.7 °C 10.1 °F /  -12.2 °C 30.21in /  1022.9hPa WNW 0.8mph /  1.3km/h 3mph /  4.8km/h 82.5% 0.00in /  0mm 39 W/m2
07:54 15.2 °F /  -9.3 °C 10.9 °F /  -11.7 °C 30.20in /  1022.6hPa WNW 0.6mph /  1km/h 4mph /  6.4km/h 83% 0.00in /  0mm 42 W/m2
07:59 16.1 °F /  -8.8 °C 11.9 °F /  -11.2 °C 30.20in /  1022.6hPa West 1.7mph /  2.7km/h 5mph /  8km/h 83% 0.00in /  0mm 56 W/m2
08:00 16.6 °F /  -8.6 °C 12.4 °F /  -10.9 °C 30.20in /  1022.6hPa Calm   5mph /  8km/h 83% 0.00in /  0mm 49 W/m2
08:09 18.4 °F /  -7.6 °C 13.8 °F /  -10.1 °C 30.20in /  1022.6hPa SW 2.1mph /  3.4km/h 7mph /  11.3km/h 82% 0.00in /  0mm 107 W/m2
08:14 19.9 °F /  -6.7 °C 14.9 °F /  -9.5 °C 30.20in /  1022.6hPa SW 2.1mph /  3.4km/h 7mph /  11.3km/h 80.6% 0.00in /  0mm 90 W/m2
08:19 21.1 °F /  -6.1 °C 15.5 °F /  -9.2 °C 30.20in /  1022.6hPa SW 3.5mph /  5.6km/h 7mph /  11.3km/h 78.3% 0.00in /  0mm 148 W/m2
08:24 22.3 °F /  -5.4 °C 16 °F /  -8.9 °C 30.20in /  1022.6hPa SW 2mph /  3.2km/h 8mph /  12.9km/h 76.5% 0.00in /  0mm 149 W/m2
08:29 23.3 °F /  -4.8 °C 16.6 °F /  -8.6 °C 30.20in /  1022.6hPa SW 1.5mph /  2.4km/h 8mph /  12.9km/h 75% 0.00in /  0mm 165 W/m2
08:34 24.3 °F /  -4.3 °C 16.9 °F /  -8.4 °C 30.20in /  1022.6hPa SW 2.7mph /  4.3km/h 8mph /  12.9km/h 72.9% 0.00in /  0mm 193 W/m2
08:39 25.1 °F /  -3.8 °C 17.2 °F /  -8.2 °C 30.20in /  1022.6hPa SW 1.3mph /  2.1km/h 7mph /  11.3km/h 71.4% 0.00in /  0mm 218 W/m2
08:44 25.9 °F /  -3.4 °C 17.5 °F /  -8.1 °C 30.19in /  1022.2hPa SW 1.9mph /  3.1km/h 7mph /  11.3km/h 70.2% 0.00in /  0mm 221 W/m2
08:49 26.6 °F /  -3 °C 17.8 °F /  -7.9 °C 30.19in /  1022.2hPa SW 1.9mph /  3.1km/h 11mph /  17.7km/h 68.9% 0.00in /  0mm 230 W/m2
08:54 27.1 °F /  -2.7 °C 17.9 °F /  -7.8 °C 30.19in /  1022.2hPa SW 1.7mph /  2.7km/h 11mph /  17.7km/h 67.8% 0.00in /  0mm 243 W/m2
08:59 27.5 °F /  -2.5 °C 18 °F /  -7.8 °C 30.19in /  1022.2hPa SW 1.3mph /  2.1km/h 11mph /  17.7km/h 67% 0.00in /  0mm 243 W/m2
09:04 27.9 °F /  -2.3 °C 18.6 °F /  -7.4 °C 30.18in /  1021.9hPa SW 1.9mph /  3.1km/h 11mph /  17.7km/h 67.5% 0.00in /  0mm 246 W/m2
09:09 28.3 °F /  -2.1 °C 18.8 °F /  -7.3 °C 30.17in /  1021.6hPa SSW 3.6mph /  5.8km/h 10mph /  16.1km/h 67.1% 0.00in /  0mm 220 W/m2
09:14 28.5 °F /  -1.9 °C 18.7 °F /  -7.4 °C 30.17in /  1021.6hPa SW 4mph /  6.4km/h 10mph /  16.1km/h 66.2% 0.00in /  0mm 169 W/m2
09:19 28.7 °F /  -1.8 °C 18.9 °F /  -7.3 °C 30.16in /  1021.2hPa SSW 3.7mph /  6km/h 12mph /  19.3km/h 66.2% 0.00in /  0mm 162 W/m2
09:24 29 °F /  -1.7 °C 19.2 °F /  -7.1 °C 30.16in /  1021.2hPa SSW 3.3mph /  5.3km/h 12mph /  19.3km/h 66.4% 0.00in /  0mm 258 W/m2
09:29 29.4 °F /  -1.4 °C 19.5 °F /  -6.9 °C 30.16in /  1021.2hPa SW 4.9mph /  7.9km/h 13mph /  20.9km/h 66.1% 0.00in /  0mm 204 W/m2
09:34 29.7 °F /  -1.3 °C 19.7 °F /  -6.8 °C 30.16in /  1021.2hPa SW 5mph /  8km/h 13mph /  20.9km/h 66% 0.00in /  0mm 192 W/m2
09:39 30 °F /  -1.1 °C 20 °F /  -6.7 °C 30.15in /  1020.9hPa SW 4.6mph /  7.4km/h 12mph /  19.3km/h 66% 0.00in /  0mm 206 W/m2
09:44 30.3 °F /  -0.9 °C 20.1 °F /  -6.6 °C 30.15in /  1020.9hPa SW 4.5mph /  7.2km/h 12mph /  19.3km/h 65.4% 0.00in /  0mm 156 W/m2
09:49 30.6 °F /  -0.8 °C 20.2 °F /  -6.6 °C 30.15in /  1020.9hPa SW 3.1mph /  5km/h 12mph /  19.3km/h 65% 0.00in /  0mm 134 W/m2
09:54 30.8 °F /  -0.7 °C 20.3 °F /  -6.5 °C 30.15in /  1020.9hPa SW 5.3mph /  8.5km/h 15mph /  24.1km/h 64.6% 0.00in /  0mm 132 W/m2
09:59 31.2 °F /  -0.4 °C 20.4 °F /  -6.4 °C 30.15in /  1020.9hPa SW 5.3mph /  8.5km/h 15mph /  24.1km/h 64% 0.00in /  0mm 186 W/m2
10:04 31.5 °F /  -0.3 °C 20.5 °F /  -6.4 °C 30.15in /  1020.9hPa SW 5.5mph /  8.9km/h 15mph /  24.1km/h 63.4% 0.00in /  0mm 213 W/m2
10:09 31.8 °F /  -0.1 °C 20.6 °F /  -6.3 °C 30.14in /  1020.5hPa SW 3.4mph /  5.5km/h 12mph /  19.3km/h 62.7% 0.00in /  0mm 98 W/m2
10:14 32.2 °F /  0.1 °C 20.7 °F /  -6.3 °C 30.14in /  1020.5hPa SW 3.8mph /  6.1km/h 15mph /  24.1km/h 62.1% 0.00in /  0mm 225 W/m2
10:19 32.6 °F /  0.3 °C 20.6 °F /  -6.3 °C 30.14in /  1020.5hPa SW 4.9mph /  7.9km/h 15mph /  24.1km/h 60.8% 0.00in /  0mm 269 W/m2
10:24 33.2 °F /  0.7 °C 20.8 °F /  -6.2 °C 30.14in /  1020.5hPa SW 3.8mph /  6.1km/h 15mph /  24.1km/h 60.1% 0.00in /  0mm 265 W/m2
10:29 33.6 °F /  0.9 °C 20.7 °F /  -6.3 °C 30.13in /  1020.2hPa SW 6.3mph /  10.1km/h 18mph /  29km/h 58.7% 0.00in /  0mm 179 W/m2
10:34 33.7 °F /  0.9 °C 20.2 °F /  -6.6 °C 30.13in /  1020.2hPa SW 4.4mph /  7.1km/h 18mph /  29km/h 57.2% 0.00in /  0mm 176 W/m2
10:39 33.8 °F /  1 °C 20.7 °F /  -6.3 °C 30.13in /  1020.2hPa SW 1.3mph /  2.1km/h 15mph /  24.1km/h 58.3% 0.00in /  0mm 450 W/m2
10:44 34.4 °F /  1.3 °C 21.3 °F /  -5.9 °C 30.13in /  1020.2hPa SW 3.7mph /  6km/h 15mph /  24.1km/h 58.1% 0.00in /  0mm 450 W/m2
10:49 35 °F /  1.7 °C 20.7 °F /  -6.3 °C 30.13in /  1020.2hPa SW 6mph /  9.7km/h 15mph /  24.1km/h 55.5% 0.00in /  0mm 183 W/m2
10:54 35.2 °F /  1.8 °C 20.7 °F /  -6.3 °C 30.12in /  1019.9hPa SSW 1.8mph /  2.9km/h 15mph /  24.1km/h 55% 0.00in /  0mm 213 W/m2
10:59 35.6 °F /  2 °C 20.9 °F /  -6.2 °C 30.12in /  1019.9hPa SW 3.8mph /  6.1km/h 15mph /  24.1km/h 54.6% 0.00in /  0mm 339 W/m2
11:04 36 °F /  2.2 °C 21.1 °F /  -6.1 °C 30.12in /  1019.9hPa SW 5.1mph /  8.2km/h 15mph /  24.1km/h 54.3% 0.00in /  0mm 373 W/m2
11:09 36.2 °F /  2.3 °C 20.9 °F /  -6.2 °C 30.11in /  1019.5hPa SW 3.9mph /  6.3km/h 13mph /  20.9km/h 53.5% 0.00in /  0mm 265 W/m2
11:14 36.2 °F /  2.3 °C 21 °F /  -6.1 °C 30.11in /  1019.5hPa SW 2.9mph /  4.7km/h 13mph /  20.9km/h 53.5% 0.00in /  0mm 234 W/m2
11:19 36.4 °F /  2.4 °C 21.4 °F /  -5.9 °C 30.11in /  1019.5hPa SW 4.1mph /  6.6km/h 15mph /  24.1km/h 54% 0.00in /  0mm 287 W/m2
11:24 36.6 °F /  2.6 °C 21.1 °F /  -6.1 °C 30.11in /  1019.5hPa SW 5.5mph /  8.9km/h 15mph /  24.1km/h 53% 0.00in /  0mm 183 W/m2
11:29 36.6 °F /  2.6 °C 21.3 °F /  -5.9 °C 30.10in /  1019.2hPa SW 4.5mph /  7.2km/h 15mph /  24.1km/h 53.5% 0.00in /  0mm 183 W/m2
11:34 36.8 °F /  2.7 °C 21.6 °F /  -5.8 °C 30.10in /  1019.2hPa SW 5mph /  8km/h 15mph /  24.1km/h 53.7% 0.00in /  0mm 230 W/m2
11:39 36.9 °F /  2.7 °C 21.4 °F /  -5.9 °C 30.09in /  1018.8hPa SW 5.5mph /  8.9km/h 15mph /  24.1km/h 53% 0.00in /  0mm 371 W/m2
11:44 37 °F /  2.8 °C 21.6 °F /  -5.8 °C 30.09in /  1018.8hPa SW 5mph /  8km/h 15mph /  24.1km/h 53.3% 0.00in /  0mm 371 W/m2
11:49 37.1 °F /  2.8 °C 21.6 °F /  -5.8 °C 30.09in /  1018.8hPa SW 7.6mph /  12.2km/h 16mph /  25.7km/h 53% 0.00in /  0mm 278 W/m2
11:54 36.9 °F /  2.7 °C 21.4 °F /  -5.9 °C 30.08in /  1018.5hPa SW 6.2mph /  10km/h 18mph /  29km/h 53% 0.00in /  0mm 306 W/m2
11:59 36.9 °F /  2.7 °C 21.4 °F /  -5.9 °C 30.08in /  1018.5hPa SW 4.1mph /  6.6km/h 18mph /  29km/h 53.1% 0.00in /  0mm 464 W/m2
12:00 36.9 °F /  2.7 °C 21.8 °F /  -5.7 °C 30.08in /  1018.5hPa SW 8mph /  12.9km/h 18mph /  29km/h 54% 0.00in /  0mm 425 W/m2
12:09 37.2 °F /  2.9 °C 22 °F /  -5.6 °C 30.07in /  1018.2hPa SW 2.9mph /  4.7km/h 9mph /  14.5km/h 53.7% 0.00in /  0mm 374 W/m2
12:14 37.5 °F /  3.1 °C 22.3 °F /  -5.4 °C 30.07in /  1018.2hPa SW 4mph /  6.4km/h 16mph /  25.7km/h 54% 0.00in /  0mm 406 W/m2
12:19 37.7 °F /  3.2 °C 22.5 °F /  -5.3 °C 30.07in /  1018.2hPa SW 1.8mph /  2.9km/h 16mph /  25.7km/h 53.7% 0.00in /  0mm 499 W/m2
12:24 38.1 °F /  3.4 °C 22.7 °F /  -5.2 °C 30.07in /  1018.2hPa SW 3.6mph /  5.8km/h 16mph /  25.7km/h 53.5% 0.00in /  0mm 499 W/m2
12:29 38.6 °F /  3.7 °C 22.8 °F /  -5.1 °C 30.07in /  1018.2hPa SW 1.3mph /  2.1km/h 16mph /  25.7km/h 52.7% 0.01in /  0.25mm 512 W/m2
12:34 38.9 °F /  3.8 °C 23.1 °F /  -4.9 °C 30.06in /  1017.8hPa SSW 2.4mph /  3.9km/h 16mph /  25.7km/h 52.6% 0.01in /  0.25mm 512 W/m2
12:39 38.9 °F /  3.8 °C 22.8 °F /  -5.1 °C 30.06in /  1017.8hPa SSW 3.3mph /  5.3km/h 9mph /  14.5km/h 52% 0.01in /  0.25mm 123 W/m2
12:44 38.7 °F /  3.7 °C 22.9 °F /  -5.1 °C 30.06in /  1017.8hPa SW 2.6mph /  4.2km/h 11mph /  17.7km/h 52.6% 0.01in /  0.25mm 195 W/m2
12:49 38.9 °F /  3.8 °C 23.3 °F /  -4.8 °C 30.05in /  1017.5hPa SW 2.1mph /  3.4km/h 11mph /  17.7km/h 53.3% 0.01in /  0.25mm 151 W/m2
12:54 39.3 °F /  4.1 °C 23.1 °F /  -4.9 °C 30.05in /  1017.5hPa SW 3mph /  4.8km/h 11mph /  17.7km/h 51.8% 0.01in /  0.25mm 424 W/m2
12:59 39.5 °F /  4.2 °C 23.3 °F /  -4.8 °C 30.05in /  1017.5hPa SSW 2.2mph /  3.5km/h 11mph /  17.7km/h 51.8% 0.01in /  0.25mm 424 W/m2
13:04 39.4 °F /  4.1 °C 23.2 °F /  -4.9 °C 30.05in /  1017.5hPa SW 3mph /  4.8km/h 11mph /  17.7km/h 52% 0.01in /  0.25mm 302 W/m2
13:09 39.2 °F /  4 °C 22.6 °F /  -5.2 °C 30.04in /  1017.2hPa SW 4.6mph /  7.4km/h 15mph /  24.1km/h 51.2% 0.00in /  0mm 144 W/m2
13:14 38.8 °F /  3.8 °C 22.6 °F /  -5.2 °C 30.04in /  1017.2hPa SW 3.1mph /  5km/h 15mph /  24.1km/h 51.8% 0.00in /  0mm 227 W/m2
13:19 38.9 °F /  3.8 °C 22.9 °F /  -5.1 °C 30.04in /  1017.2hPa SW 2.1mph /  3.4km/h 15mph /  24.1km/h 52.4% 0.00in /  0mm 318 W/m2
13:24 39.1 °F /  3.9 °C 23.5 °F /  -4.7 °C 30.04in /  1017.2hPa SW 2.2mph /  3.5km/h 15mph /  24.1km/h 53.2% 0.00in /  0mm 318 W/m2
13:29 39.4 °F /  4.1 °C 23.4 °F /  -4.8 °C 30.04in /  1017.2hPa SW 1.9mph /  3.1km/h 15mph /  24.1km/h 52.3% 0.01in /  0.25mm 178 W/m2
13:34 39.4 °F /  4.1 °C 23.4 °F /  -4.8 °C 30.03in /  1016.8hPa SW 1.7mph /  2.7km/h 15mph /  24.1km/h 52.2% 0.01in /  0.25mm 120 W/m2
13:39 39.6 °F /  4.2 °C 23.7 °F /  -4.6 °C 30.03in /  1016.8hPa SW 3.4mph /  5.5km/h 7mph /  11.3km/h 52.5% 0.01in /  0.25mm 113 W/m2
13:44 39.9 °F /  4.4 °C 23.2 °F /  -4.9 °C 30.03in /  1016.8hPa SW 2.8mph /  4.5km/h 7mph /  11.3km/h 51% 0.01in /  0.25mm 93 W/m2
13:49 39.9 °F /  4.4 °C 23.2 °F /  -4.9 °C 30.03in /  1016.8hPa SW 2.1mph /  3.4km/h 7mph /  11.3km/h 51% 0.01in /  0.25mm 132 W/m2
13:54 39.7 °F /  4.3 °C 23.3 °F /  -4.8 °C 30.03in /  1016.8hPa SW 2.2mph /  3.5km/h 8mph /  12.9km/h 51.4% 0.01in /  0.25mm 257 W/m2
13:59 39.8 °F /  4.3 °C 23.4 °F /  -4.8 °C 30.03in /  1016.8hPa SW 2.4mph /  3.9km/h 9mph /  14.5km/h 51.6% 0.01in /  0.25mm 195 W/m2
14:04 39.8 °F /  4.3 °C 23.2 °F /  -4.9 °C 30.02in /  1016.5hPa SW 3.1mph /  5km/h 11mph /  17.7km/h 51% 0.01in /  0.25mm 174 W/m2
14:09 39.9 °F /  4.4 °C 23.5 °F /  -4.7 °C 30.02in /  1016.5hPa SW 1.4mph /  2.3km/h 11mph /  17.7km/h 51.5% 0.01in /  0.25mm 188 W/m2
14:14 40 °F /  4.4 °C 23.6 °F /  -4.7 °C 30.02in /  1016.5hPa SW 2.4mph /  3.9km/h 11mph /  17.7km/h 51.5% 0.01in /  0.25mm 174 W/m2
14:19 39.9 °F /  4.4 °C 23.3 °F /  -4.8 °C 30.02in /  1016.5hPa SW 2.9mph /  4.7km/h 11mph /  17.7km/h 51% 0.01in /  0.25mm 146 W/m2
14:24 39.9 °F /  4.4 °C 23 °F /  -5 °C 30.02in /  1016.5hPa SW 0.6mph /  1km/h 11mph /  17.7km/h 50.5% 0.01in /  0.25mm 135 W/m2
14:29 39.9 °F /  4.4 °C 23.7 °F /  -4.6 °C 30.03in /  1016.8hPa SW 0.7mph /  1.1km/h 11mph /  17.7km/h 51.9% 0.01in /  0.25mm 220 W/m2
14:34 40 °F /  4.4 °C 23.8 °F /  -4.6 °C 30.03in /  1016.8hPa SW 1.4mph /  2.3km/h 11mph /  17.7km/h 52% 0.01in /  0.25mm 135 W/m2
14:39 40.1 °F /  4.5 °C 23.7 °F /  -4.6 °C 30.03in /  1016.8hPa SW 2.1mph /  3.4km/h 6mph /  9.7km/h 51.5% 0.00in /  0mm 74 W/m2
14:44 39.9 °F /  4.4 °C 23.3 °F /  -4.8 °C 30.03in /  1016.8hPa SW 2mph /  3.2km/h 10mph /  16.1km/h 51% 0.00in /  0mm 79 W/m2
14:49 39.6 °F /  4.2 °C 23.3 °F /  -4.8 °C 30.03in /  1016.8hPa SW 1.2mph /  1.9km/h 10mph /  16.1km/h 51.7% 0.00in /  0mm 74 W/m2
14:54 39.3 °F /  4.1 °C 23.4 °F /  -4.8 °C 30.03in /  1016.8hPa SW 1.1mph /  1.8km/h 10mph /  16.1km/h 52.5% 0.00in /  0mm 67 W/m2
14:59 39.2 °F /  4 °C 23.4 °F /  -4.8 °C 30.03in /  1016.8hPa SW 1.2mph /  1.9km/h 10mph /  16.1km/h 52.8% 0.00in /  0mm 63 W/m2
15:04 39.2 °F /  4 °C 23.4 °F /  -4.8 °C 30.03in /  1016.8hPa SW 2.2mph /  3.5km/h 10mph /  16.1km/h 52.8% 0.00in /  0mm 62 W/m2
15:09 39.1 °F /  3.9 °C 23.4 °F /  -4.8 °C 30.03in /  1016.8hPa SW 1.6mph /  2.6km/h 9mph /  14.5km/h 52.9% 0.00in /  0mm 63 W/m2
15:14 39 °F /  3.9 °C 23.1 °F /  -4.9 °C 30.03in /  1016.8hPa SW 2mph /  3.2km/h 9mph /  14.5km/h 52.6% 0.00in /  0mm 60 W/m2
15:19 38.8 °F /  3.8 °C 22.7 °F /  -5.2 °C 30.03in /  1016.8hPa SW 1.1mph /  1.8km/h 9mph /  14.5km/h 52% 0.00in /  0mm 56 W/m2
15:24 38.6 °F /  3.7 °C 22.8 °F /  -5.1 °C 30.04in /  1017.2hPa SW 2.3mph /  3.7km/h 9mph /  14.5km/h 52.5% 0.00in /  0mm 56 W/m2
15:29 38.5 °F /  3.6 °C 22.4 °F /  -5.3 °C 30.04in /  1017.2hPa WSW 0.8mph /  1.3km/h 9mph /  14.5km/h 52% 0.00in /  0mm 49 W/m2
15:34 38.4 °F /  3.6 °C 22.6 °F /  -5.2 °C 30.03in /  1016.8hPa WSW 0.2mph /  0.3km/h 9mph /  14.5km/h 52.6% 0.00in /  0mm 44 W/m2
15:39 38.3 °F /  3.5 °C 22.7 °F /  -5.2 °C 30.03in /  1016.8hPa WSW 0.9mph /  1.4km/h 4mph /  6.4km/h 53% 0.00in /  0mm 39 W/m2
15:44 38.2 °F /  3.4 °C 22.7 °F /  -5.2 °C 30.03in /  1016.8hPa WSW 0.3mph /  0.5km/h 4mph /  6.4km/h 53.2% 0.00in /  0mm 37 W/m2
15:49 38.2 °F /  3.4 °C 23 °F /  -5 °C 30.03in /  1016.8hPa WSW 0.4mph /  0.6km/h 4mph /  6.4km/h 54% 0.00in /  0mm 37 W/m2
15:54 38.1 °F /  3.4 °C 22.9 °F /  -5.1 °C 30.03in /  1016.8hPa WSW 0.9mph /  1.4km/h 4mph /  6.4km/h 54% 0.00in /  0mm 37 W/m2
15:59 38 °F /  3.3 °C 22.8 °F /  -5.1 °C 30.04in /  1017.2hPa SW 1.7mph /  2.7km/h 9mph /  14.5km/h 53.9% 0.00in /  0mm 35 W/m2
16:00 38 °F /  3.3 °C 22.4 °F /  -5.3 °C 30.04in /  1017.2hPa SW 6mph /  9.7km/h 9mph /  14.5km/h 53% 0.00in /  0mm 30 W/m2
16:09 37.8 °F /  3.2 °C 22.2 °F /  -5.4 °C 30.04in /  1017.2hPa SW 2.5mph /  4km/h 8mph /  12.9km/h 53% 0.00in /  0mm 30 W/m2
16:14 37.7 °F /  3.2 °C 22.1 °F /  -5.5 °C 30.04in /  1017.2hPa WSW 1.5mph /  2.4km/h 8mph /  12.9km/h 53% 0.00in /  0mm 28 W/m2
16:19 37.5 °F /  3.1 °C 22.3 °F /  -5.4 °C 30.04in /  1017.2hPa SW 1.5mph /  2.4km/h 8mph /  12.9km/h 53.7% 0.00in /  0mm 21 W/m2
16:24 37.4 °F /  3 °C 22.3 °F /  -5.4 °C 30.04in /  1017.2hPa SW 2mph /  3.2km/h 12mph /  19.3km/h 54% 0.00in /  0mm 16 W/m2
16:29 37.2 °F /  2.9 °C 22.4 °F /  -5.3 °C 30.04in /  1017.2hPa WSW 0.5mph /  0.8km/h 12mph /  19.3km/h 54.7% 0.00in /  0mm 11 W/m2
16:34 37 °F /  2.8 °C 22.3 °F /  -5.4 °C 30.04in /  1017.2hPa SW 1.5mph /  2.4km/h 12mph /  19.3km/h 54.9% 0.00in /  0mm 7 W/m2
16:39 36.8 °F /  2.7 °C 22.1 °F /  -5.5 °C 30.05in /  1017.5hPa WSW 0.5mph /  0.8km/h 11mph /  17.7km/h 54.9% 0.00in /  0mm 0 W/m2
16:44 36.6 °F /  2.6 °C 22.2 °F /  -5.4 °C 30.05in /  1017.5hPa WSW 1mph /  1.6km/h 11mph /  17.7km/h 55.6% 0.00in /  0mm 0 W/m2
16:49 36.4 °F /  2.4 °C 21.9 °F /  -5.6 °C 30.05in /  1017.5hPa WSW 1.3mph /  2.1km/h 11mph /  17.7km/h 55.3% 0.00in /  0mm 0 W/m2
16:54 36.2 °F /  2.3 °C 22 °F /  -5.6 °C 30.05in /  1017.5hPa WSW 0.5mph /  0.8km/h 11mph /  17.7km/h 56% 0.00in /  0mm 0 W/m2
16:59 36 °F /  2.2 °C 21.9 °F /  -5.6 °C 30.05in /  1017.5hPa SW 0.3mph /  0.5km/h 11mph /  17.7km/h 56.1% 0.00in /  0mm 0 W/m2
17:04 35.8 °F /  2.1 °C 21.7 °F /  -5.7 °C 30.05in /  1017.5hPa Calm   11mph /  17.7km/h 56.3% 0.00in /  0mm 0 W/m2
17:09 35.6 °F /  2 °C 22.1 °F /  -5.5 °C 30.05in /  1017.5hPa SW 0.3mph /  0.5km/h 3mph /  4.8km/h 57.7% 0.00in /  0mm 0 W/m2
17:14 35.4 °F /  1.9 °C 21.7 °F /  -5.7 °C 30.06in /  1017.8hPa SW 0.1mph /  0.2km/h 3mph /  4.8km/h 57% 0.00in /  0mm 0 W/m2
17:19 35.2 °F /  1.8 °C 21.8 °F /  -5.7 °C 30.06in /  1017.8hPa Calm   3mph /  4.8km/h 57.8% 0.00in /  0mm 0 W/m2
17:24 35 °F /  1.7 °C 21.7 °F /  -5.7 °C 30.06in /  1017.8hPa WSW 0.7mph /  1.1km/h 3mph /  4.8km/h 58% 0.00in /  0mm 0 W/m2
17:29 34.7 °F /  1.5 °C 21.5 °F /  -5.8 °C 30.06in /  1017.8hPa SW 2.2mph /  3.5km/h 9mph /  14.5km/h 58% 0.00in /  0mm 0 W/m2
17:34 34.7 °F /  1.5 °C 21.6 °F /  -5.8 °C 30.05in /  1017.5hPa SW 0.3mph /  0.5km/h 9mph /  14.5km/h 58.3% 0.00in /  0mm 0 W/m2
17:39 34.6 °F /  1.4 °C 21.7 °F /  -5.7 °C 30.05in /  1017.5hPa SW 0.1mph /  0.2km/h 2mph /  3.2km/h 59% 0.00in /  0mm 0 W/m2
17:44 34.4 °F /  1.3 °C 21.6 °F /  -5.8 °C 30.05in /  1017.5hPa Calm   2mph /  3.2km/h 59% 0.00in /  0mm 0 W/m2
17:49 34.3 °F /  1.3 °C 21.4 °F /  -5.9 °C 30.06in /  1017.8hPa SW 0.2mph /  0.3km/h 2mph /  3.2km/h 59% 0.00in /  0mm 0 W/m2
17:54 34.1 °F /  1.2 °C 21.3 °F /  -5.9 °C 30.06in /  1017.8hPa Calm   2mph /  3.2km/h 59% 0.00in /  0mm 0 W/m2
17:59 33.9 °F /  1.1 °C 21.3 °F /  -5.9 °C 30.06in /  1017.8hPa Calm   2mph /  3.2km/h 59.5% 0.00in /  0mm 0 W/m2
18:04 33.6 °F /  0.9 °C 21.2 °F /  -6 °C 30.06in /  1017.8hPa Calm   2mph /  3.2km/h 60% 0.00in /  0mm 0 W/m2
18:09 33.4 °F /  0.8 °C 21 °F /  -6.1 °C 30.06in /  1017.8hPa Calm     60% 0.00in /  0mm 0 W/m2
18:14 33.2 °F /  0.7 °C 20.9 °F /  -6.2 °C 30.06in /  1017.8hPa Calm     60% 0.00in /  0mm 0 W/m2
18:19 33.1 °F /  0.6 °C 21.1 °F /  -6.1 °C 30.07in /  1018.2hPa Calm     61% 0.00in /  0mm 0 W/m2
18:24 33 °F /  0.6 °C 21 °F /  -6.1 °C 30.07in /  1018.2hPa Calm     61% 0.00in /  0mm 0 W/m2
18:29 32.9 °F /  0.5 °C 20.9 °F /  -6.2 °C 30.07in /  1018.2hPa Calm     61% 0.00in /  0mm 0 W/m2
18:34 32.9 °F /  0.5 °C 21.2 °F /  -6 °C 30.06in /  1017.8hPa Calm   1mph /  1.6km/h 61.7% 0.00in /  0mm 0 W/m2
18:39 32.8 °F /  0.4 °C 21.2 °F /  -6 °C 30.07in /  1018.2hPa SW 0.1mph /  0.2km/h 1mph /  1.6km/h 62% 0.00in /  0mm 0 W/m2
18:44 32.6 °F /  0.3 °C 21.4 °F /  -5.9 °C 30.07in /  1018.2hPa Calm   1mph /  1.6km/h 63% 0.00in /  0mm 0 W/m2
18:49 32.3 °F /  0.2 °C 21.3 °F /  -5.9 °C 30.07in /  1018.2hPa SW 0.2mph /  0.3km/h 1mph /  1.6km/h 63.5% 0.00in /  0mm 0 W/m2
18:54 31.9 °F /  -0.1 °C 21.1 °F /  -6.1 °C 30.07in /  1018.2hPa SW 0.1mph /  0.2km/h 1mph /  1.6km/h 64% 0.00in /  0mm 0 W/m2
18:59 31.6 °F /  -0.2 °C 21 °F /  -6.1 °C 30.07in /  1018.2hPa SW 0.5mph /  0.8km/h 2mph /  3.2km/h 64.3% 0.00in /  0mm 0 W/m2
19:04 31.5 °F /  -0.3 °C 21.1 °F /  -6.1 °C 30.07in /  1018.2hPa SW 1.1mph /  1.8km/h 3mph /  4.8km/h 65% 0.00in /  0mm 0 W/m2
19:09 31.5 °F /  -0.3 °C 21.1 °F /  -6.1 °C 30.07in /  1018.2hPa SW 0.4mph /  0.6km/h 3mph /  4.8km/h 65% 0.00in /  0mm 0 W/m2
19:14 31.5 °F /  -0.3 °C 21.2 °F /  -6 °C 30.07in /  1018.2hPa Calm   3mph /  4.8km/h 65.3% 0.00in /  0mm 0 W/m2
19:19 31.5 °F /  -0.3 °C 21.5 °F /  -5.8 °C 30.07in /  1018.2hPa SW 0.2mph /  0.3km/h 3mph /  4.8km/h 66% 0.00in /  0mm 0 W/m2
19:24 31.4 °F /  -0.3 °C 21.4 °F /  -5.9 °C 30.07in /  1018.2hPa SW 0.4mph /  0.6km/h 3mph /  4.8km/h 66% 0.00in /  0mm 0 W/m2
19:29 31.4 °F /  -0.3 °C 21.4 °F /  -5.9 °C 30.07in /  1018.2hPa Calm   3mph /  4.8km/h 66% 0.00in /  0mm 0 W/m2
19:34 31.4 °F /  -0.3 °C 21.4 °F /  -5.9 °C 30.07in /  1018.2hPa Calm   3mph /  4.8km/h 66% 0.00in /  0mm 0 W/m2
19:39 31.4 °F /  -0.3 °C 21.4 °F /  -5.9 °C 30.08in /  1018.5hPa SW 0.6mph /  1km/h 2mph /  3.2km/h 66% 0.00in /  0mm 0 W/m2
19:44 31.5 °F /  -0.3 °C 21.5 °F /  -5.8 °C 30.08in /  1018.5hPa SW 0.2mph /  0.3km/h 3mph /  4.8km/h 66% 0.00in /  0mm 0 W/m2
19:49 31.5 °F /  -0.3 °C 21.5 °F /  -5.8 °C 30.08in /  1018.5hPa SW 0.1mph /  0.2km/h 3mph /  4.8km/h 66% 0.00in /  0mm 0 W/m2
19:54 31.6 °F /  -0.2 °C 21.6 °F /  -5.8 °C 30.08in /  1018.5hPa SW 0.2mph /  0.3km/h 3mph /  4.8km/h 66% 0.00in /  0mm 0 W/m2
19:59 31.7 °F /  -0.2 °C 21.6 °F /  -5.8 °C 30.08in /  1018.5hPa SW 0.1mph /  0.2km/h 3mph /  4.8km/h 66% 0.00in /  0mm 0 W/m2
20:00 31.7 °F /  -0.2 °C 21.7 °F /  -5.7 °C 30.08in /  1018.5hPa Calm   3mph /  4.8km/h 66% 0.00in /  0mm 0 W/m2
20:09 31.8 °F /  -0.1 °C 21.9 °F /  -5.6 °C 30.08in /  1018.5hPa SW 0.2mph /  0.3km/h 2mph /  3.2km/h 66.4% 0.00in /  0mm 0 W/m2
20:14 31.9 °F /  -0.1 °C 22.2 °F /  -5.4 °C 30.08in /  1018.5hPa SW 0.3mph /  0.5km/h 2mph /  3.2km/h 67% 0.00in /  0mm 0 W/m2
20:19 31.9 °F /  -0.1 °C 22.2 °F /  -5.4 °C 30.08in /  1018.5hPa SW 0.7mph /  1.1km/h 3mph /  4.8km/h 67% 0.00in /  0mm 0 W/m2
20:24 32 °F /  0 °C 22.3 °F /  -5.4 °C 30.08in /  1018.5hPa SW 0.8mph /  1.3km/h 3mph /  4.8km/h 67% 0.00in /  0mm 0 W/m2
20:29 32.1 °F /  0.1 °C 22.4 °F /  -5.3 °C 30.08in /  1018.5hPa SW 0.7mph /  1.1km/h 3mph /  4.8km/h 67% 0.00in /  0mm 0 W/m2
20:34 32.2 °F /  0.1 °C 22.5 °F /  -5.3 °C 30.08in /  1018.5hPa SW 1.4mph /  2.3km/h 4mph /  6.4km/h 67% 0.00in /  0mm 0 W/m2
20:39 32.4 °F /  0.2 °C 22.6 °F /  -5.2 °C 30.08in /  1018.5hPa SW 1.1mph /  1.8km/h 4mph /  6.4km/h 67% 0.00in /  0mm 0 W/m2
20:44 32.5 °F /  0.3 °C 22.7 °F /  -5.2 °C 30.08in /  1018.5hPa SW 1.2mph /  1.9km/h 4mph /  6.4km/h 67% 0.00in /  0mm 0 W/m2
20:49 32.6 °F /  0.3 °C 22.8 °F /  -5.1 °C 30.08in /  1018.5hPa SW 1.1mph /  1.8km/h 5mph /  8km/h 67% 0.00in /  0mm 0 W/m2
20:54 32.7 °F /  0.4 °C 23 °F /  -5 °C 30.08in /  1018.5hPa SW 0.6mph /  1km/h 5mph /  8km/h 67% 0.00in /  0mm 0 W/m2
20:59 32.8 °F /  0.4 °C 23.1 °F /  -4.9 °C 30.07in /  1018.2hPa SW 0.3mph /  0.5km/h 5mph /  8km/h 67% 0.00in /  0mm 0 W/m2
21:04 32.9 °F /  0.5 °C 23.2 °F /  -4.9 °C 30.08in /  1018.5hPa Calm   5mph /  8km/h 67% 0.00in /  0mm 0 W/m2
21:09 33 °F /  0.6 °C 22.9 °F /  -5.1 °C 30.08in /  1018.5hPa SW 1.3mph /  2.1km/h 3mph /  4.8km/h 66% 0.00in /  0mm 0 W/m2
21:14 33.2 °F /  0.7 °C 23 °F /  -5 °C 30.08in /  1018.5hPa SW 1.1mph /  1.8km/h 3mph /  4.8km/h 66% 0.00in /  0mm 0 W/m2
21:19 33.3 °F /  0.7 °C 23.3 °F /  -4.8 °C 30.07in /  1018.2hPa SW 0.7mph /  1.1km/h 3mph /  4.8km/h 66.4% 0.00in /  0mm 0 W/m2
21:24 33.3 °F /  0.7 °C 23.3 °F /  -4.8 °C 30.07in /  1018.2hPa SW 0.5mph /  0.8km/h 4mph /  6.4km/h 66.3% 0.00in /  0mm 0 W/m2
21:29 33.4 °F /  0.8 °C 23.3 °F /  -4.8 °C 30.07in /  1018.2hPa SW 0.7mph /  1.1km/h 4mph /  6.4km/h 66% 0.00in /  0mm 0 W/m2
21:34 33.4 °F /  0.8 °C 23.3 °F /  -4.8 °C 30.07in /  1018.2hPa Calm   4mph /  6.4km/h 66% 0.00in /  0mm 0 W/m2
21:39 33.5 °F /  0.8 °C 23.4 °F /  -4.8 °C 30.07in /  1018.2hPa Calm     66% 0.00in /  0mm 0 W/m2
21:44 33.5 °F /  0.8 °C 23.4 °F /  -4.8 °C 30.07in /  1018.2hPa Calm     66% 0.00in /  0mm 0 W/m2
21:49 33.5 °F /  0.8 °C 23.4 °F /  -4.8 °C 30.07in /  1018.2hPa Calm     66% 0.00in /  0mm 0 W/m2
21:54 33.6 °F /  0.9 °C 23.5 °F /  -4.7 °C 30.07in /  1018.2hPa SW 0.1mph /  0.2km/h 2mph /  3.2km/h 66% 0.00in /  0mm 0 W/m2
21:59 33.6 °F /  0.9 °C 23.8 °F /  -4.6 °C 30.07in /  1018.2hPa Calm   2mph /  3.2km/h 67% 0.00in /  0mm 0 W/m2
22:04 33.6 °F /  0.9 °C 23.8 °F /  -4.6 °C 30.08in /  1018.5hPa Calm   2mph /  3.2km/h 67% 0.00in /  0mm 0 W/m2
22:09 33.6 °F /  0.9 °C 23.8 °F /  -4.6 °C 30.07in /  1018.2hPa Calm     67% 0.00in /  0mm 0 W/m2
22:14 33.6 °F /  0.9 °C 23.8 °F /  -4.6 °C 30.07in /  1018.2hPa Calm     67% 0.00in /  0mm 0 W/m2
22:19 33.6 °F /  0.9 °C 23.8 °F /  -4.6 °C 30.07in /  1018.2hPa Calm     67% 0.00in /  0mm 0 W/m2
22:24 33.6 °F /  0.9 °C 23.8 °F /  -4.6 °C 30.07in /  1018.2hPa Calm     67% 0.00in /  0mm 0 W/m2
22:29 33.6 °F /  0.9 °C 23.8 °F /  -4.6 °C 30.07in /  1018.2hPa Calm     67% 0.00in /  0mm 0 W/m2
22:34 33.7 °F /  0.9 °C 23.9 °F /  -4.5 °C 30.07in /  1018.2hPa Calm     67% 0.00in /  0mm 0 W/m2
22:39 33.7 °F /  0.9 °C 23.9 °F /  -4.5 °C 30.07in /  1018.2hPa Calm     67% 0.00in /  0mm 0 W/m2
22:44 33.7 °F /  0.9 °C 23.8 °F /  -4.6 °C 30.08in /  1018.5hPa Calm   1mph /  1.6km/h 66.7% 0.00in /  0mm 0 W/m2
22:49 33.8 °F /  1 °C 23.6 °F /  -4.7 °C 30.07in /  1018.2hPa SW 0.1mph /  0.2km/h 1mph /  1.6km/h 65.9% 0.00in /  0mm 0 W/m2
22:54 33.9 °F /  1.1 °C 23.6 °F /  -4.7 °C 30.07in /  1018.2hPa Calm   1mph /  1.6km/h 65.6% 0.00in /  0mm 0 W/m2
22:59 33.9 °F /  1.1 °C 23.8 °F /  -4.6 °C 30.07in /  1018.2hPa Calm   1mph /  1.6km/h 66% 0.00in /  0mm 0 W/m2
23:00 33.9 °F /  1.1 °C 23.8 °F /  -4.6 °C 30.07in /  1018.2hPa Calm   1mph /  1.6km/h 66% 0.00in /  0mm 0 W/m2
23:09 33.8 °F /  1 °C 23.7 °F /  -4.6 °C 30.07in /  1018.2hPa Calm     66% 0.00in /  0mm 0 W/m2
23:14 33.8 °F /  1 °C 23.7 °F /  -4.6 °C 30.07in /  1018.2hPa Calm     66% 0.00in /  0mm 0 W/m2
23:19 33.7 °F /  0.9 °C 23.9 °F /  -4.5 °C 30.07in /  1018.2hPa Calm     67% 0.00in /  0mm 0 W/m2
23:24 33.7 °F /  0.9 °C 23.9 °F /  -4.5 °C 30.07in /  1018.2hPa Calm     67% 0.00in /  0mm 0 W/m2
23:29 33.6 °F /  0.9 °C 23.8 °F /  -4.6 °C 30.07in /  1018.2hPa Calm     67% 0.00in /  0mm 0 W/m2
23:34 33.5 °F /  0.8 °C 23.8 °F /  -4.6 °C 30.06in /  1017.8hPa Calm     67% 0.00in /  0mm 0 W/m2
23:39 33.6 °F /  0.9 °C 24.4 °F /  -4.2 °C 30.06in /  1017.8hPa Calm     68.7% 0.00in /  0mm 0 W/m2
23:44 33.7 °F /  0.9 °C 25.4 °F /  -3.7 °C 30.06in /  1017.8hPa Calm     71.2% 0.00in /  0mm 0 W/m2
23:49 33.8 °F /  1 °C 25.6 °F /  -3.6 °C 30.06in /  1017.8hPa Calm     71.5% 0.00in /  0mm 0 W/m2
23:54 33.9 °F /  1.1 °C 25.6 °F /  -3.6 °C 30.05in /  1017.5hPa Calm     71.3% 0.00in /  0mm 0 W/m2
23:59 34 °F /  1.1 °C 26.1 °F /  -3.3 °C 30.05in /  1017.5hPa Calm     72.6% 0.00in /  0mm 0 W/m2
Hartford County Weather
Compliments of Weather Underground - 4 mb